Portada
METAR-TAF:

Aeropuertos :

Vitória, Espírito Santo, Brasil

latitud: 20-16S, longitud: 040-17W, altitud: 4 m

Observación

El informe se hizo hace 54 minutos, a las 14:00 UTC
Viento 8 kt del sur-sureste
Temperatura 33°C
Humedad 53%
Presión 1011 hPa
Visibilidad 10 km o más
sin nubes por debajo de 1500 m y sin presencia de cumulonimbus.

METAR: SBVT 111400Z 15008KT CAVOK 33/22 Q1011

Hora: 12:54 (14:54 UTC)

Pronóstico

El informe se hizo hace 4 horas y 54 minutos, a las 10:00 UTC
Pronóstico válido del 11 a las 12 UTC al 12 a las 12 UTC
Viento 15 kt del noreste
Visibilidad 10 km o más
Escasas nubes a una altura de 2500 ft
Evolucionando progresivamente
del 12 a las 00 UTC al 12 a las 02 UTC
Viento 10 kt del norte

TAF: SBVT 111000Z 1112/1212 04015KT 9999 FEW025 TX34/1115Z TN25/1207Z BECMG 1200/1202 01010KT RMK PCN

METAR-TAF

Observaciones y pronósticos meteorológicos de más de 4000 aeropuertos (mensajes METAR y TAF).

Los puntos amarillos y rojos representan las estaciones disponibles.

Ponga el ratón en el punto deseado para ver el nombre de la estación.

Haga clic para ver las observaciones y los pronósticos meteorológicos.

Para cambiar el mapa : haga clic en los botones verdes con una cruz de color negro para hacer un zoom, en el botón verde con un guión para alejar o en las flechas verdes para mapas adyacentes.


METAR-TAF: